createdAt,value
2018-07-02T00:02:21.291Z,40.80
2018-07-02T00:04:49.457Z,40.60
2018-07-02T00:07:20.055Z,41.10
2018-07-02T00:09:48.684Z,40.70
2018-07-02T00:12:17.995Z,40.70
2018-07-02T00:14:47.318Z,42.00
2018-07-02T00:17:15.596Z,41.40
2018-07-02T00:22:12.210Z,41.10
2018-07-02T00:24:40.478Z,41.70
2018-07-02T00:27:08.773Z,41.30
2018-07-02T00:29:36.962Z,41.80
2018-07-02T00:32:05.126Z,41.20
2018-07-02T00:34:33.452Z,42.50
2018-07-02T00:37:01.712Z,41.80
2018-07-02T00:39:29.875Z,41.80
2018-07-02T00:41:58.082Z,42.70
2018-07-02T00:44:26.239Z,42.10
2018-07-02T00:46:54.561Z,43.10
2018-07-02T00:49:22.724Z,42.80
2018-07-02T00:51:50.866Z,42.60
2018-07-02T00:54:19.192Z,43.20
2018-07-02T00:56:47.422Z,42.60
2018-07-02T00:59:15.612Z,43.20
2018-07-02T01:01:43.762Z,43.20
2018-07-02T01:04:11.947Z,42.90
2018-07-02T01:06:40.098Z,42.80
2018-07-02T01:09:09.777Z,43.30
2018-07-02T01:11:37.991Z,43.20
2018-07-02T01:14:06.483Z,43.60
2018-07-02T01:16:34.647Z,43.20
2018-07-02T01:19:02.825Z,43.50
2018-07-02T01:21:31.386Z,43.70
2018-07-02T01:23:59.566Z,44.20
2018-07-02T01:26:27.951Z,44.00
2018-07-02T01:28:56.170Z,43.40
2018-07-02T01:31:24.331Z,44.00
2018-07-02T01:33:52.469Z,44.10
2018-07-02T01:36:20.633Z,44.00
2018-07-02T01:38:48.903Z,44.30
2018-07-02T01:41:17.058Z,44.00
2018-07-02T01:43:51.878Z,44.70
2018-07-02T01:46:20.102Z,44.20
2018-07-02T01:48:48.254Z,44.70
2018-07-02T01:51:17.142Z,44.70
2018-07-02T01:53:45.310Z,45.60
2018-07-02T01:56:13.483Z,44.90
2018-07-02T01:58:41.582Z,45.00
2018-07-02T02:01:09.878Z,45.10
2018-07-02T02:03:37.983Z,45.40
2018-07-02T02:06:06.136Z,45.50
2018-07-02T02:08:34.250Z,45.20
2018-07-02T02:11:02.401Z,45.70
2018-07-02T02:13:31.447Z,45.40
2018-07-02T02:15:59.564Z,45.80
2018-07-02T02:18:27.675Z,46.60
2018-07-02T02:20:55.818Z,46.20
2018-07-02T02:23:24.003Z,46.50
2018-07-02T02:25:52.478Z,46.40
2018-07-02T02:28:20.597Z,46.80
2018-07-02T02:30:48.791Z,46.50
2018-07-02T02:33:16.910Z,46.60
2018-07-02T02:35:45.052Z,46.80
2018-07-02T02:38:13.527Z,46.80
2018-07-02T02:40:41.618Z,47.00
2018-07-02T02:43:09.914Z,47.00
2018-07-02T02:45:38.084Z,47.40
2018-07-02T02:48:06.210Z,47.40
2018-07-02T02:50:34.342Z,47.10
2018-07-02T02:53:02.451Z,47.30
2018-07-02T02:55:31.510Z,47.10
2018-07-02T02:57:59.645Z,47.20
2018-07-02T03:00:28.559Z,47.30
2018-07-02T03:02:56.658Z,47.10
2018-07-02T03:05:24.782Z,47.40
2018-07-02T03:07:52.917Z,47.50
2018-07-02T03:10:21.088Z,47.80
2018-07-02T03:12:49.306Z,47.60
2018-07-02T03:15:17.447Z,47.80
2018-07-02T03:17:45.569Z,47.80
2018-07-02T03:20:13.696Z,47.50
2018-07-02T03:22:41.803Z,48.20
2018-07-02T03:25:09.955Z,47.40
2018-07-02T03:30:07.259Z,47.80
2018-07-02T03:32:35.359Z,47.60
2018-07-02T03:35:03.503Z,47.70
2018-07-02T03:37:31.750Z,47.70
2018-07-02T03:39:59.874Z,47.60
2018-07-02T03:42:28.004Z,47.70
2018-07-02T03:44:56.114Z,47.90
2018-07-02T03:47:24.239Z,47.80
2018-07-02T03:49:52.358Z,47.90
2018-07-02T03:52:21.274Z,47.80
2018-07-02T03:54:49.529Z,47.80
2018-07-02T03:57:18.004Z,47.80
2018-07-02T03:59:46.143Z,48.10
2018-07-02T04:02:14.516Z,48.40
2018-07-02T04:07:10.700Z,48.60
2018-07-02T04:09:38.904Z,48.10
2018-07-02T04:12:07.119Z,48.10
2018-07-02T04:14:35.227Z,48.00
2018-07-02T04:17:03.366Z,48.00
2018-07-02T04:19:31.743Z,48.30
2018-07-02T04:21:59.922Z,48.30
2018-07-02T04:26:56.078Z,48.50
2018-07-02T04:29:24.241Z,49.00
2018-07-02T04:31:52.424Z,48.40
2018-07-02T04:34:20.778Z,48.00
2018-07-02T04:36:49.076Z,48.50
2018-07-02T04:39:17.226Z,48.40
2018-07-02T04:41:45.383Z,48.50
2018-07-02T04:44:13.555Z,48.90
2018-07-02T04:46:41.716Z,48.70
2018-07-02T04:49:10.041Z,48.30
2018-07-02T04:51:38.227Z,48.60
2018-07-02T04:54:06.362Z,49.10
2018-07-02T04:56:34.530Z,48.40
2018-07-02T04:59:03.316Z,48.50
2018-07-02T05:01:31.807Z,48.50
2018-07-02T05:03:59.946Z,49.00
2018-07-02T05:06:28.158Z,48.30
2018-07-02T05:08:56.327Z,48.50
2018-07-02T05:11:24.529Z,48.20
2018-07-02T05:13:52.899Z,48.00
2018-07-02T05:16:21.067Z,48.30
2018-07-02T05:18:49.216Z,48.00
2018-07-02T05:21:17.651Z,48.00
2018-07-02T05:23:45.819Z,48.10
2018-07-02T05:26:13.970Z,48.20
2018-07-02T05:28:42.130Z,48.10
2018-07-02T05:31:10.349Z,48.10
2018-07-02T05:33:39.303Z,48.40
2018-07-02T05:36:07.470Z,47.70
2018-07-02T05:38:35.630Z,47.90
2018-07-02T05:41:03.825Z,48.20
2018-07-02T05:43:31.946Z,47.60
2018-07-02T05:46:00.098Z,48.00
2018-07-02T05:48:28.250Z,48.00
2018-07-02T05:50:56.468Z,47.60
2018-07-02T05:53:24.623Z,47.40
2018-07-02T05:55:52.798Z,47.10
2018-07-02T05:58:20.934Z,47.30
2018-07-02T06:00:55.814Z,47.10
2018-07-02T06:03:23.971Z,47.40
2018-07-02T06:05:52.186Z,47.20
2018-07-02T06:08:20.365Z,46.80
2018-07-02T06:10:48.600Z,47.00
2018-07-02T06:13:16.774Z,47.10
2018-07-02T06:15:44.901Z,47.50
2018-07-02T06:18:13.047Z,46.50
2018-07-02T06:20:41.211Z,45.80
2018-07-02T06:23:09.402Z,45.60
2018-07-02T06:25:37.636Z,45.30
2018-07-02T06:28:05.808Z,45.30
2018-07-02T06:30:34.367Z,45.40
2018-07-02T06:33:03.442Z,45.70
2018-07-02T06:35:33.353Z,46.10
2018-07-02T06:38:01.587Z,44.90
2018-07-02T06:40:30.565Z,45.30
2018-07-02T06:42:59.257Z,45.40
2018-07-02T06:45:27.443Z,44.20
2018-07-02T06:47:55.587Z,41.70
2018-07-02T06:50:23.725Z,38.60
2018-07-02T06:52:52.012Z,35.40
2018-07-02T06:55:20.159Z,33.00
2018-07-02T06:57:48.307Z,30.00
2018-07-02T07:00:16.487Z,28.90
2018-07-02T07:02:44.630Z,27.50
2018-07-02T07:05:12.775Z,26.80
2018-07-02T07:07:40.936Z,26.20
2018-07-02T07:10:09.069Z,25.40
2018-07-02T07:12:37.214Z,24.50
2018-07-02T07:15:06.445Z,24.60
2018-07-02T07:17:35.023Z,24.00
2018-07-02T07:20:03.875Z,23.60
2018-07-02T07:22:32.242Z,23.40
2018-07-02T07:25:00.747Z,23.30
2018-07-02T07:27:41.540Z,22.90
2018-07-02T07:30:12.160Z,22.80
2018-07-02T07:32:40.509Z,22.60
2018-07-02T07:35:11.941Z,22.30
2018-07-02T07:37:40.201Z,21.80
2018-07-02T07:40:09.183Z,22.10
2018-07-02T07:42:43.964Z,21.40
2018-07-02T07:45:12.251Z,21.00
2018-07-02T07:47:40.372Z,21.20
2018-07-02T07:50:08.502Z,21.00
2018-07-02T07:52:36.659Z,21.10
2018-07-02T07:55:05.687Z,21.10
2018-07-02T07:57:33.829Z,20.90
2018-07-02T08:00:01.927Z,20.40
2018-07-02T08:02:30.506Z,19.70
2018-07-02T08:04:58.634Z,20.40
2018-07-02T08:07:26.718Z,20.00
2018-07-02T08:09:54.825Z,20.30
2018-07-02T08:12:22.970Z,20.00
2018-07-02T08:14:51.219Z,19.20
2018-07-02T08:17:19.319Z,19.10
2018-07-02T08:19:47.436Z,18.90
2018-07-02T08:22:15.735Z,19.00
2018-07-02T08:24:43.871Z,18.80
2018-07-02T08:27:12.087Z,18.10
2018-07-02T08:29:40.210Z,18.20
2018-07-02T08:32:08.966Z,18.20
2018-07-02T08:34:38.074Z,17.40
2018-07-02T08:37:06.227Z,17.30
2018-07-02T08:39:34.339Z,17.60
2018-07-02T08:42:02.455Z,17.50
2018-07-02T08:44:30.670Z,17.70
2018-07-02T08:46:58.766Z,17.50
2018-07-02T08:49:26.880Z,17.50
2018-07-02T08:51:55.009Z,17.40
2018-07-02T08:54:23.256Z,17.50
2018-07-02T08:56:51.643Z,16.90
2018-07-02T08:59:19.743Z,16.70
2018-07-02T09:01:47.839Z,17.20
2018-07-02T09:04:16.870Z,16.70
2018-07-02T09:09:14.463Z,17.30
2018-07-02T09:11:42.641Z,17.30
2018-07-02T09:14:11.107Z,17.10
2018-07-02T09:16:39.239Z,17.00
2018-07-02T09:19:07.338Z,16.50
2018-07-02T09:21:35.476Z,15.90
2018-07-02T09:24:03.576Z,16.10
2018-07-02T09:26:32.581Z,16.00
2018-07-02T09:29:00.725Z,16.60
2018-07-02T09:31:29.032Z,16.00
2018-07-02T09:33:57.124Z,15.70
2018-07-02T09:36:25.217Z,15.50
2018-07-02T09:38:53.555Z,15.30
2018-07-02T09:41:21.690Z,15.60
2018-07-02T09:43:49.822Z,16.10
2018-07-02T09:46:17.938Z,15.30
2018-07-02T09:48:46.121Z,15.30
2018-07-02T09:51:14.219Z,15.50
2018-07-02T09:53:42.356Z,15.40
2018-07-02T09:56:10.487Z,15.40
2018-07-02T09:58:38.657Z,15.10
2018-07-02T10:01:07.295Z,15.80
2018-07-02T10:03:35.503Z,15.50
2018-07-02T10:06:05.037Z,15.10
2018-07-02T10:08:34.167Z,15.10
2018-07-02T10:11:02.311Z,14.10
2018-07-02T10:13:30.462Z,15.00
2018-07-02T10:15:58.682Z,15.10
2018-07-02T10:18:26.826Z,15.20
2018-07-02T10:20:54.963Z,14.70
2018-07-02T10:23:23.111Z,15.20
2018-07-02T10:25:51.299Z,14.90
2018-07-02T10:30:47.441Z,14.40
2018-07-02T10:33:16.460Z,14.00
2018-07-02T10:35:50.195Z,13.90
2018-07-02T10:40:51.040Z,13.80
2018-07-02T10:43:19.303Z,14.00
2018-07-02T10:45:47.521Z,14.30
2018-07-02T10:48:15.724Z,13.70
2018-07-02T10:50:43.962Z,14.40
2018-07-02T10:53:12.104Z,14.10
2018-07-02T10:55:40.815Z,14.30
2018-07-02T10:58:09.162Z,14.80
2018-07-02T11:00:37.349Z,15.50
2018-07-02T11:03:05.507Z,15.60
2018-07-02T11:05:33.643Z,16.30
2018-07-02T11:08:01.891Z,16.80
2018-07-02T11:10:30.019Z,17.90
2018-07-02T11:13:00.168Z,18.70
2018-07-02T11:15:28.315Z,18.00
2018-07-02T11:17:56.455Z,18.70
2018-07-02T11:20:24.584Z,19.60
2018-07-02T11:22:52.716Z,19.30
2018-07-02T11:25:20.891Z,20.00
2018-07-02T11:27:49.067Z,19.40
2018-07-02T11:30:17.240Z,20.00
2018-07-02T11:32:45.374Z,19.50
2018-07-02T11:35:13.552Z,20.20
2018-07-02T11:37:41.671Z,19.60
2018-07-02T11:40:09.842Z,19.60
2018-07-02T11:42:38.074Z,20.00
2018-07-02T11:45:06.867Z,20.00
2018-07-02T11:47:35.214Z,20.20
2018-07-02T11:50:03.400Z,19.90
2018-07-02T11:55:00.494Z,19.90
2018-07-02T11:57:29.510Z,19.10
2018-07-02T11:59:57.638Z,19.80
2018-07-02T12:02:25.820Z,20.10
2018-07-02T12:07:21.862Z,19.70
2018-07-02T12:09:50.029Z,19.70
2018-07-02T12:12:18.590Z,20.10
2018-07-02T12:14:46.751Z,20.50
2018-07-02T12:17:14.911Z,20.70
2018-07-02T12:19:43.055Z,19.70
2018-07-02T12:22:11.203Z,19.60
2018-07-02T12:24:39.484Z,20.20
2018-07-02T12:27:07.630Z,20.20
2018-07-02T12:29:35.762Z,19.70
2018-07-02T12:32:03.915Z,20.70
2018-07-02T12:34:38.877Z,19.60
2018-07-02T12:37:07.954Z,19.30
2018-07-02T12:39:37.183Z,19.60
2018-07-02T12:42:06.252Z,19.80
2018-07-02T12:44:34.395Z,20.20
2018-07-02T12:47:02.590Z,18.90
2018-07-02T12:49:30.704Z,19.60
2018-07-02T12:51:58.920Z,19.70
2018-07-02T12:54:27.211Z,19.90
2018-07-02T12:56:57.887Z,19.40
2018-07-02T12:59:26.555Z,19.60
2018-07-02T13:01:54.686Z,20.30
2018-07-02T13:04:22.993Z,19.80
2018-07-02T13:06:51.054Z,19.60
2018-07-02T13:09:19.221Z,19.30
2018-07-02T13:11:47.355Z,19.90
2018-07-02T13:14:15.459Z,20.10
2018-07-02T13:16:43.590Z,20.40
2018-07-02T13:19:11.718Z,19.10
2018-07-02T13:21:39.949Z,19.50
2018-07-02T13:24:08.116Z,19.30
2018-07-02T13:26:36.241Z,18.80
2018-07-02T13:29:04.345Z,19.70
2018-07-02T13:31:32.829Z,19.30
2018-07-02T13:34:01.178Z,20.30
2018-07-02T13:36:29.278Z,19.90
2018-07-02T13:38:57.539Z,20.20
2018-07-02T13:41:25.653Z,19.40
2018-07-02T13:43:53.771Z,20.00
2018-07-02T13:46:21.870Z,19.40
2018-07-02T13:48:49.962Z,20.90
2018-07-02T13:51:18.224Z,20.40
2018-07-02T13:53:46.169Z,20.10
2018-07-02T13:56:14.322Z,20.20
2018-07-02T13:58:42.454Z,19.60
2018-07-02T14:01:11.106Z,19.80
2018-07-02T14:03:39.270Z,20.30
2018-07-02T14:06:07.393Z,20.30
2018-07-02T14:08:35.620Z,20.70
2018-07-02T14:11:03.803Z,20.20
2018-07-02T14:13:32.843Z,19.80
2018-07-02T14:16:01.062Z,20.60
2018-07-02T14:18:29.230Z,19.70
2018-07-02T14:20:57.984Z,20.00
2018-07-02T14:23:26.210Z,20.50
2018-07-02T14:25:54.374Z,20.50
2018-07-02T14:28:22.510Z,19.90
2018-07-02T14:30:50.683Z,20.20
2018-07-02T14:33:18.809Z,20.00
2018-07-02T14:35:47.743Z,19.10
2018-07-02T14:38:15.903Z,20.00
2018-07-02T14:40:44.035Z,19.50
2018-07-02T14:43:12.183Z,19.60
2018-07-02T14:45:40.367Z,19.90
2018-07-02T14:48:08.508Z,20.50
2018-07-02T14:50:36.662Z,20.70
2018-07-02T14:53:04.871Z,20.70
2018-07-02T14:55:33.029Z,19.60
2018-07-02T14:58:01.218Z,20.90
2018-07-02T15:00:29.376Z,19.70
2018-07-02T15:02:57.515Z,20.00
2018-07-02T15:05:26.228Z,20.00
2018-07-02T15:07:55.165Z,20.10
2018-07-02T15:10:23.318Z,20.60
2018-07-02T15:12:51.481Z,20.10
2018-07-02T15:15:20.087Z,20.30
2018-07-02T15:17:48.251Z,20.30
2018-07-02T15:20:16.397Z,20.20
2018-07-02T15:22:44.531Z,20.30
2018-07-02T15:25:12.670Z,20.90
2018-07-02T15:27:40.878Z,21.10
2018-07-02T15:30:09.015Z,21.30
2018-07-02T15:32:37.170Z,21.20
2018-07-02T15:35:05.460Z,20.90
2018-07-02T15:37:33.578Z,21.30
2018-07-02T15:40:01.729Z,20.70
2018-07-02T15:42:29.857Z,21.20
2018-07-02T15:44:58.035Z,21.50
2018-07-02T15:47:26.156Z,21.20
2018-07-02T15:49:54.295Z,21.70
2018-07-02T15:52:22.478Z,20.80
2018-07-02T15:54:50.603Z,21.10
2018-07-02T15:57:19.354Z,22.20
2018-07-02T15:59:47.465Z,23.00
2018-07-02T16:02:15.582Z,23.00
2018-07-02T16:04:43.668Z,21.90
2018-07-02T16:07:11.955Z,22.30
2018-07-02T16:09:40.086Z,21.80
2018-07-02T16:12:08.220Z,22.10
2018-07-02T16:14:36.374Z,22.70
2018-07-02T16:17:04.482Z,22.90
2018-07-02T16:19:33.202Z,23.00
2018-07-02T16:22:01.346Z,22.80
2018-07-02T16:24:29.499Z,22.80
2018-07-02T16:26:57.638Z,22.50
2018-07-02T16:29:25.840Z,22.40
2018-07-02T16:31:53.935Z,23.00
2018-07-02T16:34:22.118Z,22.80
2018-07-02T16:36:50.283Z,23.60
2018-07-02T16:39:18.989Z,23.10
2018-07-02T16:41:47.091Z,22.90
2018-07-02T16:44:15.170Z,23.20
2018-07-02T16:46:43.275Z,22.60
2018-07-02T16:49:11.362Z,23.00
2018-07-02T16:51:39.512Z,23.80
2018-07-02T16:54:07.660Z,23.80
2018-07-02T16:56:36.111Z,23.60
2018-07-02T17:01:33.146Z,24.30
2018-07-02T17:04:01.349Z,23.60
2018-07-02T17:06:29.479Z,23.60
2018-07-02T17:08:57.663Z,23.70
2018-07-02T17:11:25.808Z,23.70
2018-07-02T17:13:54.136Z,24.00
2018-07-02T17:16:22.361Z,24.00
2018-07-02T17:18:50.591Z,24.50
2018-07-02T17:21:18.763Z,24.00
2018-07-02T17:23:46.910Z,24.30
2018-07-02T17:26:15.073Z,24.30
2018-07-02T17:28:43.333Z,25.10
2018-07-02T17:31:11.467Z,24.90
2018-07-02T17:33:39.611Z,25.20
2018-07-02T17:36:07.759Z,25.00
2018-07-02T17:38:35.884Z,24.80
2018-07-02T17:41:04.015Z,25.40
2018-07-02T17:43:32.199Z,25.40
2018-07-02T17:46:00.316Z,25.30
2018-07-02T17:48:28.471Z,24.90
2018-07-02T17:50:56.614Z,26.30
2018-07-02T17:53:25.335Z,26.00
2018-07-02T17:55:53.435Z,24.90
2018-07-02T17:58:21.626Z,24.80
2018-07-02T18:00:49.723Z,25.20
2018-07-02T18:03:17.844Z,25.20
2018-07-02T18:05:45.929Z,26.40
2018-07-02T18:08:14.028Z,26.90
2018-07-02T18:10:42.198Z,28.20
2018-07-02T18:13:10.322Z,26.00
2018-07-02T18:15:38.437Z,27.50
2018-07-02T18:18:06.541Z,26.50
2018-07-02T18:20:35.228Z,26.30
2018-07-02T18:23:03.396Z,26.70
2018-07-02T18:25:31.594Z,27.00
2018-07-02T18:27:59.683Z,27.80
2018-07-02T18:30:27.766Z,27.20
2018-07-02T18:32:55.830Z,28.10
2018-07-02T18:35:23.974Z,28.90
2018-07-02T18:37:52.086Z,27.60
2018-07-02T18:40:20.199Z,28.30
2018-07-02T18:42:48.387Z,27.50
2018-07-02T18:45:16.539Z,27.80
2018-07-02T18:47:44.619Z,29.50
2018-07-02T18:50:12.691Z,27.70
2018-07-02T18:52:40.775Z,27.70
2018-07-02T18:55:08.855Z,27.40
2018-07-02T18:57:37.000Z,28.10
2018-07-02T19:00:05.802Z,27.30
2018-07-02T19:02:33.942Z,26.80
2018-07-02T19:07:30.047Z,27.90
2018-07-02T19:09:58.240Z,27.20
2018-07-02T19:12:26.433Z,28.60
2018-07-02T19:14:54.556Z,27.90
2018-07-02T19:17:22.662Z,27.60
2018-07-02T19:19:50.926Z,28.00
2018-07-02T19:22:19.170Z,28.40
2018-07-02T19:24:47.336Z,27.00
2018-07-02T19:27:15.471Z,27.70
2018-07-02T19:29:43.648Z,28.00
2018-07-02T19:32:11.840Z,28.00
2018-07-02T19:34:39.940Z,28.70
2018-07-02T19:37:08.019Z,28.70
2018-07-02T19:39:36.134Z,28.30
2018-07-02T19:42:04.315Z,27.90
2018-07-02T19:47:01.347Z,28.60
2018-07-02T19:49:29.443Z,28.60
2018-07-02T19:51:57.518Z,28.00
2018-07-02T19:54:25.732Z,28.40
2018-07-02T19:56:53.916Z,28.60
2018-07-02T19:59:22.007Z,28.50
2018-07-02T20:01:50.087Z,28.50
2018-07-02T20:04:18.416Z,28.90
2018-07-02T20:09:14.467Z,28.60
2018-07-02T20:11:42.573Z,29.40
2018-07-02T20:14:10.791Z,29.10
2018-07-02T20:16:38.949Z,28.60
2018-07-02T20:19:07.142Z,28.90
2018-07-02T20:21:35.279Z,28.70
2018-07-02T20:24:03.467Z,28.70
2018-07-02T20:26:31.570Z,28.30
2018-07-02T20:28:59.680Z,28.20
2018-07-02T20:31:27.792Z,29.00
2018-07-02T20:33:55.883Z,28.70
2018-07-02T20:36:24.057Z,29.70
2018-07-02T20:38:52.141Z,28.70
2018-07-02T20:43:48.173Z,28.70
2018-07-02T20:46:16.254Z,29.20
2018-07-02T20:48:44.516Z,28.70
2018-07-02T20:51:12.623Z,29.20
2018-07-02T20:53:40.838Z,29.10
2018-07-02T20:56:09.573Z,29.00
2018-07-02T20:58:37.752Z,29.10
2018-07-02T21:01:05.856Z,29.30
2018-07-02T21:03:33.976Z,29.60
2018-07-02T21:06:02.086Z,30.90
2018-07-02T21:08:30.190Z,30.20
2018-07-02T21:10:58.312Z,32.00
2018-07-02T21:13:27.015Z,32.90
2018-07-02T21:15:55.733Z,35.10
2018-07-02T21:18:24.502Z,34.60
2018-07-02T21:20:53.081Z,34.80
2018-07-02T21:23:21.414Z,34.50
2018-07-02T21:25:50.032Z,34.80
2018-07-02T21:28:18.742Z,35.40
2018-07-02T21:30:47.251Z,34.20
2018-07-02T21:33:15.757Z,35.70
2018-07-02T21:35:44.189Z,38.20
2018-07-02T21:38:12.745Z,37.20
2018-07-02T21:40:41.240Z,37.00
2018-07-02T21:43:09.928Z,37.60
2018-07-02T21:45:38.535Z,35.70
2018-07-02T21:48:06.842Z,37.60
2018-07-02T21:50:35.416Z,37.20
2018-07-02T21:53:03.701Z,37.00
2018-07-02T21:55:31.812Z,37.70
2018-07-02T21:57:59.944Z,39.00
2018-07-02T22:00:28.087Z,37.30
2018-07-02T22:02:56.283Z,39.00
2018-07-02T22:05:24.538Z,37.60
2018-07-02T22:07:52.596Z,37.60
2018-07-02T22:10:20.740Z,37.90
2018-07-02T22:12:48.903Z,36.80
2018-07-02T22:15:24.075Z,37.30
2018-07-02T22:17:52.231Z,37.80
2018-07-02T22:22:48.293Z,37.60
2018-07-02T22:25:16.445Z,37.60
2018-07-02T22:27:44.648Z,38.20
2018-07-02T22:30:12.906Z,37.20
2018-07-02T22:32:41.043Z,38.80
2018-07-02T22:35:09.263Z,39.70
2018-07-02T22:37:37.415Z,39.60
2018-07-02T22:40:06.023Z,38.50
2018-07-02T22:42:34.159Z,39.30
2018-07-02T22:45:02.336Z,40.30
2018-07-02T22:47:30.475Z,39.00
2018-07-02T22:49:58.618Z,39.30
2018-07-02T22:52:26.762Z,39.90
2018-07-02T22:54:54.921Z,40.10
2018-07-02T22:57:23.407Z,39.50
2018-07-02T22:59:51.570Z,39.70
2018-07-02T23:02:19.710Z,40.30
2018-07-02T23:04:47.874Z,40.60
2018-07-02T23:07:16.107Z,39.20
2018-07-02T23:09:44.290Z,39.00
2018-07-02T23:12:12.450Z,39.60
2018-07-02T23:14:40.611Z,39.60
2018-07-02T23:17:08.772Z,39.10
2018-07-02T23:33:54.812Z,39.70
2018-07-02T23:36:22.995Z,40.00
2018-07-02T23:38:51.139Z,40.50
2018-07-02T23:41:19.279Z,40.00
2018-07-02T23:43:47.456Z,40.50
2018-07-02T23:46:15.653Z,40.10
2018-07-02T23:48:43.823Z,41.20
2018-07-02T23:51:12.011Z,40.50
2018-07-02T23:53:40.168Z,40.40
2018-07-02T23:56:08.284Z,40.40
2018-07-02T23:58:36.973Z,41.90
